sensor_id;sensor_type;location;lat;lon;timestamp;temperature;humidity
44069;DHT22;29738;51.234;5.484;2022-10-18T00:01:14;16.70;99.90
44069;DHT22;29738;51.234;5.484;2022-10-18T00:03:40;16.60;99.90
44069;DHT22;29738;51.234;5.484;2022-10-18T00:06:07;16.60;99.90
44069;DHT22;29738;51.234;5.484;2022-10-18T00:08:34;16.50;99.90
44069;DHT22;29738;51.234;5.484;2022-10-18T00:11:00;16.60;99.90
44069;DHT22;29738;51.234;5.484;2022-10-18T00:13:26;16.50;99.90
44069;DHT22;29738;51.234;5.484;2022-10-18T00:16:00;16.60;99.90
44069;DHT22;29738;51.234;5.484;2022-10-18T00:18:27;16.60;99.90
44069;DHT22;29738;51.234;5.484;2022-10-18T00:21:01;16.60;99.90
44069;DHT22;29738;51.234;5.484;2022-10-18T00:23:28;16.60;99.90
44069;DHT22;29738;51.234;5.484;2022-10-18T00:26:04;16.60;99.90
44069;DHT22;29738;51.234;5.484;2022-10-18T00:28:31;16.60;99.90
44069;DHT22;29738;51.234;5.484;2022-10-18T00:30:57;16.60;99.90
44069;DHT22;29738;51.234;5.484;2022-10-18T00:33:23;16.60;99.90
44069;DHT22;29738;51.234;5.484;2022-10-18T00:35:48;16.70;99.90
44069;DHT22;29738;51.234;5.484;2022-10-18T00:38:15;16.80;99.90
44069;DHT22;29738;51.234;5.484;2022-10-18T00:40:40;16.60;99.90
44069;DHT22;29738;51.234;5.484;2022-10-18T00:43:10;16.70;99.90
44069;DHT22;29738;51.234;5.484;2022-10-18T00:45:39;16.60;99.90
44069;DHT22;29738;51.234;5.484;2022-10-18T00:48:05;16.70;99.90
44069;DHT22;29738;51.234;5.484;2022-10-18T00:50:32;16.60;99.90
44069;DHT22;29738;51.234;5.484;2022-10-18T00:53:03;16.60;99.90
44069;DHT22;29738;51.234;5.484;2022-10-18T00:55:31;16.60;99.90
44069;DHT22;29738;51.234;5.484;2022-10-18T00:57:59;16.60;99.90
44069;DHT22;29738;51.234;5.484;2022-10-18T01:00:25;16.60;99.90
44069;DHT22;29738;51.234;5.484;2022-10-18T01:02:51;16.70;99.90
44069;DHT22;29738;51.234;5.484;2022-10-18T01:05:18;16.60;99.90
44069;DHT22;29738;51.234;5.484;2022-10-18T01:18:34;16.70;99.90
44069;DHT22;29738;51.234;5.484;2022-10-18T01:32:27;16.60;99.90
44069;DHT22;29738;51.234;5.484;2022-10-18T01:34:59;16.60;99.90
44069;DHT22;29738;51.234;5.484;2022-10-18T01:37:27;16.50;99.90
44069;DHT22;29738;51.234;5.484;2022-10-18T01:39:56;16.50;99.90
44069;DHT22;29738;51.234;5.484;2022-10-18T01:42:23;16.40;99.90
44069;DHT22;29738;51.234;5.484;2022-10-18T01:44:51;16.50;99.90
44069;DHT22;29738;51.234;5.484;2022-10-18T01:47:18;16.50;99.90
44069;DHT22;29738;51.234;5.484;2022-10-18T01:49:44;16.60;99.90
44069;DHT22;29738;51.234;5.484;2022-10-18T01:52:14;16.60;99.90
44069;DHT22;29738;51.234;5.484;2022-10-18T01:54:45;16.70;99.90
44069;DHT22;29738;51.234;5.484;2022-10-18T01:57:35;16.70;99.90
44069;DHT22;29738;51.234;5.484;2022-10-18T02:00:06;16.80;99.90
44069;DHT22;29738;51.234;5.484;2022-10-18T02:03:06;16.80;99.90
44069;DHT22;29738;51.234;5.484;2022-10-18T02:05:50;16.70;99.90
44069;DHT22;29738;51.234;5.484;2022-10-18T02:11:15;16.70;99.90
44069;DHT22;29738;51.234;5.484;2022-10-18T02:13:48;16.70;99.90
44069;DHT22;29738;51.234;5.484;2022-10-18T02:16:35;16.60;99.90
44069;DHT22;29738;51.234;5.484;2022-10-18T02:19:11;16.60;99.90
44069;DHT22;29738;51.234;5.484;2022-10-18T02:21:41;16.60;99.90
44069;DHT22;29738;51.234;5.484;2022-10-18T02:24:09;16.60;99.90
44069;DHT22;29738;51.234;5.484;2022-10-18T02:26:37;16.50;99.90
44069;DHT22;29738;51.234;5.484;2022-10-18T02:29:03;16.60;99.90
44069;DHT22;29738;51.234;5.484;2022-10-18T02:31:36;16.60;99.90
44069;DHT22;29738;51.234;5.484;2022-10-18T02:36:50;16.50;99.90
44069;DHT22;29738;51.234;5.484;2022-10-18T02:39:20;16.40;99.90
44069;DHT22;29738;51.234;5.484;2022-10-18T02:41:47;16.30;99.90
44069;DHT22;29738;51.234;5.484;2022-10-18T02:44:13;16.40;99.90
44069;DHT22;29738;51.234;5.484;2022-10-18T02:46:39;16.50;99.90
44069;DHT22;29738;51.234;5.484;2022-10-18T02:49:05;16.50;99.90
44069;DHT22;29738;51.234;5.484;2022-10-18T02:51:32;16.60;99.90
44069;DHT22;29738;51.234;5.484;2022-10-18T02:53:58;16.70;99.90
44069;DHT22;29738;51.234;5.484;2022-10-18T02:56:23;16.80;99.90
44069;DHT22;29738;51.234;5.484;2022-10-18T02:58:49;16.80;99.90
44069;DHT22;29738;51.234;5.484;2022-10-18T03:01:15;16.90;99.90
44069;DHT22;29738;51.234;5.484;2022-10-18T03:03:40;17.00;99.90
44069;DHT22;29738;51.234;5.484;2022-10-18T03:06:06;16.90;99.90
44069;DHT22;29738;51.234;5.484;2022-10-18T03:08:32;16.80;99.90
44069;DHT22;29738;51.234;5.484;2022-10-18T03:10:58;16.80;99.90
44069;DHT22;29738;51.234;5.484;2022-10-18T03:13:23;16.70;99.90
44069;DHT22;29738;51.234;5.484;2022-10-18T03:15:49;16.90;99.90
44069;DHT22;29738;51.234;5.484;2022-10-18T03:18:15;17.00;99.90
44069;DHT22;29738;51.234;5.484;2022-10-18T03:20:42;16.90;99.90
44069;DHT22;29738;51.234;5.484;2022-10-18T03:23:08;16.90;99.90
44069;DHT22;29738;51.234;5.484;2022-10-18T03:25:33;17.10;99.90
44069;DHT22;29738;51.234;5.484;2022-10-18T03:27:59;17.00;99.90
44069;DHT22;29738;51.234;5.484;2022-10-18T03:30:25;17.00;99.90
44069;DHT22;29738;51.234;5.484;2022-10-18T03:32:51;16.70;99.90
44069;DHT22;29738;51.234;5.484;2022-10-18T03:35:18;16.70;99.90
44069;DHT22;29738;51.234;5.484;2022-10-18T03:37:44;16.70;99.90
44069;DHT22;29738;51.234;5.484;2022-10-18T03:40:10;16.70;99.90
44069;DHT22;29738;51.234;5.484;2022-10-18T03:42:36;16.80;99.90
44069;DHT22;29738;51.234;5.484;2022-10-18T03:45:03;16.70;99.90
44069;DHT22;29738;51.234;5.484;2022-10-18T03:47:28;16.70;99.90
44069;DHT22;29738;51.234;5.484;2022-10-18T03:49:54;16.60;99.90
44069;DHT22;29738;51.234;5.484;2022-10-18T03:52:20;16.60;99.90
44069;DHT22;29738;51.234;5.484;2022-10-18T03:54:46;16.60;99.90
44069;DHT22;29738;51.234;5.484;2022-10-18T03:57:11;16.60;99.90
44069;DHT22;29738;51.234;5.484;2022-10-18T03:59:37;16.60;99.90
44069;DHT22;29738;51.234;5.484;2022-10-18T04:02:03;16.70;99.90
44069;DHT22;29738;51.234;5.484;2022-10-18T04:04:29;16.70;99.90
44069;DHT22;29738;51.234;5.484;2022-10-18T04:06:54;16.70;99.90
44069;DHT22;29738;51.234;5.484;2022-10-18T04:09:20;16.60;99.90
44069;DHT22;29738;51.234;5.484;2022-10-18T04:11:49;16.60;99.90
44069;DHT22;29738;51.234;5.484;2022-10-18T04:14:15;16.50;99.90
44069;DHT22;29738;51.234;5.484;2022-10-18T04:16:40;16.50;99.90
44069;DHT22;29738;51.234;5.484;2022-10-18T04:19:06;16.50;99.90
44069;DHT22;29738;51.234;5.484;2022-10-18T04:21:32;16.50;99.90
44069;DHT22;29738;51.234;5.484;2022-10-18T04:23:58;16.50;99.90
44069;DHT22;29738;51.234;5.484;2022-10-18T04:26:23;16.40;99.90
44069;DHT22;29738;51.234;5.484;2022-10-18T04:28:49;16.50;99.90
44069;DHT22;29738;51.234;5.484;2022-10-18T04:31:15;16.50;99.90
44069;DHT22;29738;51.234;5.484;2022-10-18T04:33:40;16.50;99.90
44069;DHT22;29738;51.234;5.484;2022-10-18T04:36:07;16.50;99.90
44069;DHT22;29738;51.234;5.484;2022-10-18T04:38:32;16.40;99.90
44069;DHT22;29738;51.234;5.484;2022-10-18T04:40:59;16.40;99.90
44069;DHT22;29738;51.234;5.484;2022-10-18T04:43:25;16.40;99.90
44069;DHT22;29738;51.234;5.484;2022-10-18T04:45:50;16.40;99.90
44069;DHT22;29738;51.234;5.484;2022-10-18T04:48:17;16.50;99.90
44069;DHT22;29738;51.234;5.484;2022-10-18T04:50:43;16.50;99.90
44069;DHT22;29738;51.234;5.484;2022-10-18T04:53:08;16.50;99.90
44069;DHT22;29738;51.234;5.484;2022-10-18T04:55:34;16.50;99.90
44069;DHT22;29738;51.234;5.484;2022-10-18T04:58:00;16.60;99.90
44069;DHT22;29738;51.234;5.484;2022-10-18T05:00:26;16.60;99.90
44069;DHT22;29738;51.234;5.484;2022-10-18T05:02:56;16.50;99.90
44069;DHT22;29738;51.234;5.484;2022-10-18T05:05:22;16.40;99.90
44069;DHT22;29738;51.234;5.484;2022-10-18T05:07:48;16.40;99.90
44069;DHT22;29738;51.234;5.484;2022-10-18T05:10:13;16.40;99.90
44069;DHT22;29738;51.234;5.484;2022-10-18T05:12:39;16.40;99.90
44069;DHT22;29738;51.234;5.484;2022-10-18T05:15:05;16.40;99.90
44069;DHT22;29738;51.234;5.484;2022-10-18T05:17:31;16.30;99.90
44069;DHT22;29738;51.234;5.484;2022-10-18T05:19:57;16.20;99.90
44069;DHT22;29738;51.234;5.484;2022-10-18T05:22:23;16.20;99.90
44069;DHT22;29738;51.234;5.484;2022-10-18T05:24:48;16.10;99.90
44069;DHT22;29738;51.234;5.484;2022-10-18T05:27:14;16.30;99.90
44069;DHT22;29738;51.234;5.484;2022-10-18T05:29:40;16.50;99.90
44069;DHT22;29738;51.234;5.484;2022-10-18T05:32:06;16.50;99.90
44069;DHT22;29738;51.234;5.484;2022-10-18T05:34:31;16.30;99.90
44069;DHT22;29738;51.234;5.484;2022-10-18T05:36:58;16.20;99.90
44069;DHT22;29738;51.234;5.484;2022-10-18T05:39:23;16.10;99.90
44069;DHT22;29738;51.234;5.484;2022-10-18T05:41:49;16.20;99.90
44069;DHT22;29738;51.234;5.484;2022-10-18T05:44:15;16.00;99.90
44069;DHT22;29738;51.234;5.484;2022-10-18T05:46:41;15.90;99.90
44069;DHT22;29738;51.234;5.484;2022-10-18T05:49:08;15.80;99.90
44069;DHT22;29738;51.234;5.484;2022-10-18T05:51:33;15.80;99.90
44069;DHT22;29738;51.234;5.484;2022-10-18T05:53:59;15.80;99.90
44069;DHT22;29738;51.234;5.484;2022-10-18T05:56:25;15.70;99.90
44069;DHT22;29738;51.234;5.484;2022-10-18T05:58:51;15.60;99.90
44069;DHT22;29738;51.234;5.484;2022-10-18T06:01:17;15.60;99.90
44069;DHT22;29738;51.234;5.484;2022-10-18T06:03:43;15.60;99.90
44069;DHT22;29738;51.234;5.484;2022-10-18T06:06:11;15.70;99.90
44069;DHT22;29738;51.234;5.484;2022-10-18T06:08:38;15.70;99.90
44069;DHT22;29738;51.234;5.484;2022-10-18T06:11:13;15.70;99.90
44069;DHT22;29738;51.234;5.484;2022-10-18T06:13:43;15.70;99.90
44069;DHT22;29738;51.234;5.484;2022-10-18T06:16:10;15.70;99.90
44069;DHT22;29738;51.234;5.484;2022-10-18T06:18:36;15.50;99.90
44069;DHT22;29738;51.234;5.484;2022-10-18T06:21:02;15.50;99.90
44069;DHT22;29738;51.234;5.484;2022-10-18T06:23:28;15.30;99.90
44069;DHT22;29738;51.234;5.484;2022-10-18T06:26:05;15.30;99.90
44069;DHT22;29738;51.234;5.484;2022-10-18T06:28:33;15.20;99.90
44069;DHT22;29738;51.234;5.484;2022-10-18T06:30:59;15.30;99.90
44069;DHT22;29738;51.234;5.484;2022-10-18T06:33:25;15.40;99.90
44069;DHT22;29738;51.234;5.484;2022-10-18T06:35:59;15.50;99.90
44069;DHT22;29738;51.234;5.484;2022-10-18T06:38:26;15.70;99.90
44069;DHT22;29738;51.234;5.484;2022-10-18T06:40:52;15.40;99.90
44069;DHT22;29738;51.234;5.484;2022-10-18T06:43:18;15.40;99.90
44069;DHT22;29738;51.234;5.484;2022-10-18T06:45:44;15.40;99.90
44069;DHT22;29738;51.234;5.484;2022-10-18T06:48:10;15.30;99.90
44069;DHT22;29738;51.234;5.484;2022-10-18T06:50:35;15.20;99.90
44069;DHT22;29738;51.234;5.484;2022-10-18T06:53:01;15.10;99.90
44069;DHT22;29738;51.234;5.484;2022-10-18T06:55:29;15.10;99.90
44069;DHT22;29738;51.234;5.484;2022-10-18T06:57:55;15.30;99.90
44069;DHT22;29738;51.234;5.484;2022-10-18T07:00:21;15.50;99.90
44069;DHT22;29738;51.234;5.484;2022-10-18T07:02:46;15.70;99.90
44069;DHT22;29738;51.234;5.484;2022-10-18T07:05:12;15.80;99.90
44069;DHT22;29738;51.234;5.484;2022-10-18T07:07:38;15.90;99.90
44069;DHT22;29738;51.234;5.484;2022-10-18T07:10:04;15.90;99.90
44069;DHT22;29738;51.234;5.484;2022-10-18T07:12:31;16.00;99.90
44069;DHT22;29738;51.234;5.484;2022-10-18T07:14:57;16.10;99.90
44069;DHT22;29738;51.234;5.484;2022-10-18T07:17:22;16.00;99.90
44069;DHT22;29738;51.234;5.484;2022-10-18T07:19:48;16.10;99.90
44069;DHT22;29738;51.234;5.484;2022-10-18T07:22:14;16.20;99.90
44069;DHT22;29738;51.234;5.484;2022-10-18T07:24:39;16.30;99.90
44069;DHT22;29738;51.234;5.484;2022-10-18T07:27:05;16.50;99.90
44069;DHT22;29738;51.234;5.484;2022-10-18T07:29:31;16.50;99.90
44069;DHT22;29738;51.234;5.484;2022-10-18T07:31:58;16.50;99.90
44069;DHT22;29738;51.234;5.484;2022-10-18T07:34:23;16.40;99.90
44069;DHT22;29738;51.234;5.484;2022-10-18T07:36:49;16.30;99.90
44069;DHT22;29738;51.234;5.484;2022-10-18T07:39:15;16.10;99.90
44069;DHT22;29738;51.234;5.484;2022-10-18T07:41:40;16.00;99.90
44069;DHT22;29738;51.234;5.484;2022-10-18T07:44:06;16.00;99.90
44069;DHT22;29738;51.234;5.484;2022-10-18T07:46:32;16.10;99.90
44069;DHT22;29738;51.234;5.484;2022-10-18T07:48:58;16.10;99.90
44069;DHT22;29738;51.234;5.484;2022-10-18T07:51:24;15.90;99.90
44069;DHT22;29738;51.234;5.484;2022-10-18T07:53:50;15.60;99.90
44069;DHT22;29738;51.234;5.484;2022-10-18T07:56:19;15.60;99.90
44069;DHT22;29738;51.234;5.484;2022-10-18T07:58:47;15.80;99.90
44069;DHT22;29738;51.234;5.484;2022-10-18T08:01:15;15.90;99.90
44069;DHT22;29738;51.234;5.484;2022-10-18T08:03:41;16.10;99.90
44069;DHT22;29738;51.234;5.484;2022-10-18T08:06:09;15.80;99.90
44069;DHT22;29738;51.234;5.484;2022-10-18T08:08:37;15.90;99.90
44069;DHT22;29738;51.234;5.484;2022-10-18T08:11:09;15.80;99.90
44069;DHT22;29738;51.234;5.484;2022-10-18T08:13:35;15.80;99.90
44069;DHT22;29738;51.234;5.484;2022-10-18T08:16:12;15.70;99.90
44069;DHT22;29738;51.234;5.484;2022-10-18T08:18:38;16.00;99.90
44069;DHT22;29738;51.234;5.484;2022-10-18T08:21:06;16.10;99.90
44069;DHT22;29738;51.234;5.484;2022-10-18T08:23:32;16.00;99.90
44069;DHT22;29738;51.234;5.484;2022-10-18T08:26:05;15.80;99.90
44069;DHT22;29738;51.234;5.484;2022-10-18T08:28:31;15.50;99.90
44069;DHT22;29738;51.234;5.484;2022-10-18T08:31:01;15.20;99.90
44069;DHT22;29738;51.234;5.484;2022-10-18T08:33:28;15.10;99.90
44069;DHT22;29738;51.234;5.484;2022-10-18T08:35:55;15.10;99.90
44069;DHT22;29738;51.234;5.484;2022-10-18T08:38:21;15.00;99.90
44069;DHT22;29738;51.234;5.484;2022-10-18T08:40:47;15.00;99.90
44069;DHT22;29738;51.234;5.484;2022-10-18T08:45:53;15.30;99.90
44069;DHT22;29738;51.234;5.484;2022-10-18T08:48:26;15.30;99.90
44069;DHT22;29738;51.234;5.484;2022-10-18T08:50:55;15.30;99.90
44069;DHT22;29738;51.234;5.484;2022-10-18T08:53:29;15.30;99.90
44069;DHT22;29738;51.234;5.484;2022-10-18T08:56:09;15.30;99.90
44069;DHT22;29738;51.234;5.484;2022-10-18T08:58:46;15.30;99.90
44069;DHT22;29738;51.234;5.484;2022-10-18T09:10:27;15.30;99.90
44069;DHT22;29738;51.234;5.484;2022-10-18T09:15:56;15.40;99.90
44069;DHT22;29738;51.234;5.484;2022-10-18T09:27:12;15.70;99.90
44069;DHT22;29738;51.234;5.484;2022-10-18T09:35:20;16.00;99.90
44069;DHT22;29738;51.234;5.484;2022-10-18T09:37:43;15.80;99.90
44069;DHT22;29738;51.234;5.484;2022-10-18T09:40:23;15.70;99.90
44069;DHT22;29738;51.234;5.484;2022-10-18T09:43:00;15.90;99.90
44069;DHT22;29738;51.234;5.484;2022-10-18T09:45:40;16.00;99.90
44069;DHT22;29738;51.234;5.484;2022-10-18T09:48:26;16.00;99.90
44069;DHT22;29738;51.234;5.484;2022-10-18T09:51:34;16.00;99.90
44069;DHT22;29738;51.234;5.484;2022-10-18T09:54:22;16.00;99.90
44069;DHT22;29738;51.234;5.484;2022-10-18T09:57:04;16.00;99.90
44069;DHT22;29738;51.234;5.484;2022-10-18T09:59:41;16.00;99.90
44069;DHT22;29738;51.234;5.484;2022-10-18T10:02:13;16.00;99.90
44069;DHT22;29738;51.234;5.484;2022-10-18T10:04:39;16.20;99.90
44069;DHT22;29738;51.234;5.484;2022-10-18T10:07:08;16.10;99.90
44069;DHT22;29738;51.234;5.484;2022-10-18T10:09:44;16.00;99.90
44069;DHT22;29738;51.234;5.484;2022-10-18T10:12:30;16.10;99.90
44069;DHT22;29738;51.234;5.484;2022-10-18T10:15:22;16.30;99.90
44069;DHT22;29738;51.234;5.484;2022-10-18T10:18:20;16.50;99.90
44069;DHT22;29738;51.234;5.484;2022-10-18T10:20:49;16.70;99.90
44069;DHT22;29738;51.234;5.484;2022-10-18T10:23:26;16.90;99.90
44069;DHT22;29738;51.234;5.484;2022-10-18T10:26:02;17.10;99.90
44069;DHT22;29738;51.234;5.484;2022-10-18T10:28:32;17.20;99.90
44069;DHT22;29738;51.234;5.484;2022-10-18T10:36:49;17.00;99.90
44069;DHT22;29738;51.234;5.484;2022-10-18T10:39:16;17.00;99.90
44069;DHT22;29738;51.234;5.484;2022-10-18T10:41:51;17.10;99.90
44069;DHT22;29738;51.234;5.484;2022-10-18T10:44:25;17.30;99.90
44069;DHT22;29738;51.234;5.484;2022-10-18T10:46:52;17.30;99.90
44069;DHT22;29738;51.234;5.484;2022-10-18T10:49:45;17.10;99.90
44069;DHT22;29738;51.234;5.484;2022-10-18T10:52:20;17.00;99.90
44069;DHT22;29738;51.234;5.484;2022-10-18T10:54:47;17.40;99.90
44069;DHT22;29738;51.234;5.484;2022-10-18T10:59:48;17.60;99.90
44069;DHT22;29738;51.234;5.484;2022-10-18T11:04:41;17.50;99.90
44069;DHT22;29738;51.234;5.484;2022-10-18T11:15:18;18.40;99.90
44069;DHT22;29738;51.234;5.484;2022-10-18T11:18:24;18.10;99.90
44069;DHT22;29738;51.234;5.484;2022-10-18T11:23:20;17.80;99.90
44069;DHT22;29738;51.234;5.484;2022-10-18T11:31:22;18.20;99.90
44069;DHT22;29738;51.234;5.484;2022-10-18T11:36:25;17.90;99.90
44069;DHT22;29738;51.234;5.484;2022-10-18T11:39:13;18.20;99.90
44069;DHT22;29738;51.234;5.484;2022-10-18T11:42:01;18.50;99.90
44069;DHT22;29738;51.234;5.484;2022-10-18T11:44:47;18.90;99.90
44069;DHT22;29738;51.234;5.484;2022-10-18T11:47:39;19.40;99.90
44069;DHT22;29738;51.234;5.484;2022-10-18T11:50:16;19.60;99.90
44069;DHT22;29738;51.234;5.484;2022-10-18T11:52:50;19.70;99.90
44069;DHT22;29738;51.234;5.484;2022-10-18T12:00:55;19.90;99.90
44069;DHT22;29738;51.234;5.484;2022-10-18T12:03:50;20.30;99.90
44069;DHT22;29738;51.234;5.484;2022-10-18T12:06:17;20.20;99.90
44069;DHT22;29738;51.234;5.484;2022-10-18T12:08:57;20.20;99.90
44069;DHT22;29738;51.234;5.484;2022-10-18T12:11:30;20.30;99.90
44069;DHT22;29738;51.234;5.484;2022-10-18T12:14:06;20.40;99.90
44069;DHT22;29738;51.234;5.484;2022-10-18T12:16:37;20.50;99.90
44069;DHT22;29738;51.234;5.484;2022-10-18T12:19:12;20.70;99.90
44069;DHT22;29738;51.234;5.484;2022-10-18T12:21:39;20.90;99.90
44069;DHT22;29738;51.234;5.484;2022-10-18T12:24:11;20.30;99.90
44069;DHT22;29738;51.234;5.484;2022-10-18T12:26:40;19.50;99.90
44069;DHT22;29738;51.234;5.484;2022-10-18T12:32:08;18.40;99.90
44069;DHT22;29738;51.234;5.484;2022-10-18T12:42:47;19.20;99.90
44069;DHT22;29738;51.234;5.484;2022-10-18T12:47:42;19.40;99.90
44069;DHT22;29738;51.234;5.484;2022-10-18T12:50:33;19.50;99.90
44069;DHT22;29738;51.234;5.484;2022-10-18T12:53:19;19.50;99.90
44069;DHT22;29738;51.234;5.484;2022-10-18T12:55:49;19.50;99.90
44069;DHT22;29738;51.234;5.484;2022-10-18T12:58:23;19.60;99.90
44069;DHT22;29738;51.234;5.484;2022-10-18T13:00:50;19.80;99.90
44069;DHT22;29738;51.234;5.484;2022-10-18T13:19:44;18.70;99.90
44069;DHT22;29738;51.234;5.484;2022-10-18T13:41:01;19.10;99.90
44069;DHT22;29738;51.234;5.484;2022-10-18T13:46:12;19.60;99.90
44069;DHT22;29738;51.234;5.484;2022-10-18T13:59:38;19.40;99.90
44069;DHT22;29738;51.234;5.484;2022-10-18T14:05:28;19.10;99.90
44069;DHT22;29738;51.234;5.484;2022-10-18T14:08:04;19.00;99.90
44069;DHT22;29738;51.234;5.484;2022-10-18T14:10:41;19.00;99.90
44069;DHT22;29738;51.234;5.484;2022-10-18T14:13:17;18.80;99.90
44069;DHT22;29738;51.234;5.484;2022-10-18T14:15:48;18.70;99.90
44069;DHT22;29738;51.234;5.484;2022-10-18T14:18:30;18.70;99.90
44069;DHT22;29738;51.234;5.484;2022-10-18T14:21:08;18.80;99.90
44069;DHT22;29738;51.234;5.484;2022-10-18T14:23:42;18.80;99.90
44069;DHT22;29738;51.234;5.484;2022-10-18T14:26:16;18.70;99.90
44069;DHT22;29738;51.234;5.484;2022-10-18T14:28:43;18.60;99.90
44069;DHT22;29738;51.234;5.484;2022-10-18T14:31:14;18.70;99.90
44069;DHT22;29738;51.234;5.484;2022-10-18T14:33:51;18.80;99.90
44069;DHT22;29738;51.234;5.484;2022-10-18T14:36:21;19.10;99.90
44069;DHT22;29738;51.234;5.484;2022-10-18T14:39:05;19.40;99.90
44069;DHT22;29738;51.234;5.484;2022-10-18T14:41:38;19.60;99.90
44069;DHT22;29738;51.234;5.484;2022-10-18T14:46:42;19.50;99.90
44069;DHT22;29738;51.234;5.484;2022-10-18T14:49:12;19.20;99.90
44069;DHT22;29738;51.234;5.484;2022-10-18T14:51:40;19.00;99.90
44069;DHT22;29738;51.234;5.484;2022-10-18T14:54:13;18.90;99.90
44069;DHT22;29738;51.234;5.484;2022-10-18T14:56:40;18.70;99.90
44069;DHT22;29738;51.234;5.484;2022-10-18T14:59:22;18.60;99.90
44069;DHT22;29738;51.234;5.484;2022-10-18T15:02:02;18.60;99.90
44069;DHT22;29738;51.234;5.484;2022-10-18T15:04:29;18.80;99.90
44069;DHT22;29738;51.234;5.484;2022-10-18T15:07:02;18.80;99.90
44069;DHT22;29738;51.234;5.484;2022-10-18T15:09:29;18.80;99.90
44069;DHT22;29738;51.234;5.484;2022-10-18T15:11:56;18.70;99.90
44069;DHT22;29738;51.234;5.484;2022-10-18T15:14:24;18.60;99.90
44069;DHT22;29738;51.234;5.484;2022-10-18T15:16:57;18.40;99.90
44069;DHT22;29738;51.234;5.484;2022-10-18T15:19:36;18.40;99.90
44069;DHT22;29738;51.234;5.484;2022-10-18T15:22:08;18.40;99.90
44069;DHT22;29738;51.234;5.484;2022-10-18T15:24:39;18.50;99.90
44069;DHT22;29738;51.234;5.484;2022-10-18T15:27:28;18.60;99.90
44069;DHT22;29738;51.234;5.484;2022-10-18T15:29:55;18.40;99.90
44069;DHT22;29738;51.234;5.484;2022-10-18T15:32:27;18.30;99.90
44069;DHT22;29738;51.234;5.484;2022-10-18T15:34:54;18.10;99.90
44069;DHT22;29738;51.234;5.484;2022-10-18T15:37:30;17.90;99.90
44069;DHT22;29738;51.234;5.484;2022-10-18T15:42:41;17.90;99.90
44069;DHT22;29738;51.234;5.484;2022-10-18T15:45:44;17.80;99.90
44069;DHT22;29738;51.234;5.484;2022-10-18T15:50:49;17.70;99.90
44069;DHT22;29738;51.234;5.484;2022-10-18T15:55:51;17.70;99.90
44069;DHT22;29738;51.234;5.484;2022-10-18T15:58:18;17.70;99.90
44069;DHT22;29738;51.234;5.484;2022-10-18T16:00:46;17.50;99.90
44069;DHT22;29738;51.234;5.484;2022-10-18T16:03:13;17.50;99.90
44069;DHT22;29738;51.234;5.484;2022-10-18T16:05:39;17.50;99.90
44069;DHT22;29738;51.234;5.484;2022-10-18T16:08:05;17.60;99.90
44069;DHT22;29738;51.234;5.484;2022-10-18T16:10:31;17.30;99.90
44069;DHT22;29738;51.234;5.484;2022-10-18T16:12:57;17.00;99.90
44069;DHT22;29738;51.234;5.484;2022-10-18T16:15:23;16.90;99.90
44069;DHT22;29738;51.234;5.484;2022-10-18T16:17:49;16.70;99.90
44069;DHT22;29738;51.234;5.484;2022-10-18T16:20:20;16.60;99.90
44069;DHT22;29738;51.234;5.484;2022-10-18T16:22:46;16.40;99.90
44069;DHT22;29738;51.234;5.484;2022-10-18T16:25:12;16.30;99.90
44069;DHT22;29738;51.234;5.484;2022-10-18T16:27:38;16.20;99.90
44069;DHT22;29738;51.234;5.484;2022-10-18T16:30:18;16.00;99.90
44069;DHT22;29738;51.234;5.484;2022-10-18T16:32:45;16.10;99.90
44069;DHT22;29738;51.234;5.484;2022-10-18T16:35:13;16.00;99.90
44069;DHT22;29738;51.234;5.484;2022-10-18T16:37:38;15.90;99.90
44069;DHT22;29738;51.234;5.484;2022-10-18T16:40:24;15.90;99.90
44069;DHT22;29738;51.234;5.484;2022-10-18T16:42:50;16.00;99.90
44069;DHT22;29738;51.234;5.484;2022-10-18T16:45:16;15.90;99.90
44069;DHT22;29738;51.234;5.484;2022-10-18T16:47:42;15.70;99.90
44069;DHT22;29738;51.234;5.484;2022-10-18T16:50:15;15.50;99.90
44069;DHT22;29738;51.234;5.484;2022-10-18T16:52:42;15.50;99.90
44069;DHT22;29738;51.234;5.484;2022-10-18T16:55:09;15.60;99.90
44069;DHT22;29738;51.234;5.484;2022-10-18T16:57:41;15.50;99.90
44069;DHT22;29738;51.234;5.484;2022-10-18T17:00:18;15.40;99.90
44069;DHT22;29738;51.234;5.484;2022-10-18T17:02:46;15.50;99.90
44069;DHT22;29738;51.234;5.484;2022-10-18T17:05:12;15.50;99.90
44069;DHT22;29738;51.234;5.484;2022-10-18T17:07:38;15.40;99.90
44069;DHT22;29738;51.234;5.484;2022-10-18T17:10:04;15.30;99.90
44069;DHT22;29738;51.234;5.484;2022-10-18T17:12:30;15.10;99.90
44069;DHT22;29738;51.234;5.484;2022-10-18T17:14:56;15.10;99.90
44069;DHT22;29738;51.234;5.484;2022-10-18T17:17:21;15.00;99.90
44069;DHT22;29738;51.234;5.484;2022-10-18T17:19:47;14.90;99.90
44069;DHT22;29738;51.234;5.484;2022-10-18T17:22:13;14.80;99.90
44069;DHT22;29738;51.234;5.484;2022-10-18T17:24:39;14.90;99.90
44069;DHT22;29738;51.234;5.484;2022-10-18T17:27:04;14.80;99.90
44069;DHT22;29738;51.234;5.484;2022-10-18T17:29:30;14.60;99.90
44069;DHT22;29738;51.234;5.484;2022-10-18T17:31:56;14.60;99.90
44069;DHT22;29738;51.234;5.484;2022-10-18T17:34:22;14.50;99.90
44069;DHT22;29738;51.234;5.484;2022-10-18T17:36:48;14.30;99.90
44069;DHT22;29738;51.234;5.484;2022-10-18T17:39:13;14.40;99.90
44069;DHT22;29738;51.234;5.484;2022-10-18T17:41:39;14.40;99.90
44069;DHT22;29738;51.234;5.484;2022-10-18T17:44:05;14.30;99.90
44069;DHT22;29738;51.234;5.484;2022-10-18T17:46:31;14.10;99.90
44069;DHT22;29738;51.234;5.484;2022-10-18T17:48:56;14.20;99.90
44069;DHT22;29738;51.234;5.484;2022-10-18T17:51:22;14.10;99.90
44069;DHT22;29738;51.234;5.484;2022-10-18T17:53:48;14.00;99.90
44069;DHT22;29738;51.234;5.484;2022-10-18T17:56:14;13.90;99.90
44069;DHT22;29738;51.234;5.484;2022-10-18T17:58:40;13.70;99.90
44069;DHT22;29738;51.234;5.484;2022-10-18T18:01:18;13.70;99.90
44069;DHT22;29738;51.234;5.484;2022-10-18T18:03:45;13.40;99.90
44069;DHT22;29738;51.234;5.484;2022-10-18T18:06:22;13.30;99.90
44069;DHT22;29738;51.234;5.484;2022-10-18T18:08:48;13.30;99.90
44069;DHT22;29738;51.234;5.484;2022-10-18T18:11:15;13.30;99.90
44069;DHT22;29738;51.234;5.484;2022-10-18T18:13:41;13.20;99.90
44069;DHT22;29738;51.234;5.484;2022-10-18T18:16:16;13.20;99.90
44069;DHT22;29738;51.234;5.484;2022-10-18T18:18:43;13.30;99.90
44069;DHT22;29738;51.234;5.484;2022-10-18T18:21:09;13.40;99.90
44069;DHT22;29738;51.234;5.484;2022-10-18T18:23:35;13.50;99.90
44069;DHT22;29738;51.234;5.484;2022-10-18T18:26:00;13.50;99.90
44069;DHT22;29738;51.234;5.484;2022-10-18T18:28:26;13.40;99.90
44069;DHT22;29738;51.234;5.484;2022-10-18T18:30:52;13.20;99.90
44069;DHT22;29738;51.234;5.484;2022-10-18T18:33:18;13.00;99.90